Time;durP1;ratioP1;P1;durP2;ratioP2;P2;SDS_P1;SDS_P2;PMS_P1;PMS_P2;Temp;Humidity;BMP_temperature;BMP_pressure;BME280_temperature;BME280_humidity;BME280_pressure;Samples;Min_cycle;Max_cycle;Signal;HPM_P1;HPM_P2
2023/12/16 00:01:11;;;;;;;54.87;28.73;;;5.20;1.00;;;;;;5063824;28;20230;-75
2023/12/16 00:03:40;;;;;;;57.97;28.80;;;5.20;1.00;;;;;;5063286;28;20224;-75
2023/12/16 00:06:11;;;;;;;57.23;28.87;;;5.10;1.00;;;;;;5055796;28;20228;-75
2023/12/16 00:08:39;;;;;;;58.20;29.00;;;5.10;1.00;;;;;;5061811;28;20224;-76
2023/12/16 00:11:09;;;;;;;56.43;29.70;;;5.10;1.00;;;;;;5064977;28;20232;-76
2023/12/16 00:13:38;;;;;;;55.87;28.33;;;5.20;1.00;;;;;;5063821;28;20212;-76
2023/12/16 00:16:07;;;;;;;53.30;27.27;;;5.20;1.00;;;;;;5061837;28;20236;-78
2023/12/16 00:18:37;;;;;;;50.73;26.83;;;5.10;1.00;;;;;;5053957;28;20225;-74
2023/12/16 00:21:06;;;;;;;58.50;28.07;;;5.10;1.00;;;;;;5068086;28;20307;-73
2023/12/16 00:23:36;;;;;;;52.73;28.07;;;5.20;1.00;;;;;;5060506;28;20244;-75
2023/12/16 00:26:05;;;;;;;54.83;28.33;;;5.20;1.00;;;;;;5059229;28;20225;-75
2023/12/16 00:28:34;;;;;;;51.13;27.63;;;5.10;1.00;;;;;;5062013;28;20244;-76
2023/12/16 00:31:02;;;;;;;54.37;26.33;;;5.20;1.00;;;;;;5071589;28;20224;-76
2023/12/16 00:33:31;;;;;;;54.60;28.80;;;5.30;1.00;;;;;;5091474;28;20232;-77
2023/12/16 00:36:00;;;;;;;50.70;26.30;;;5.30;1.00;;;;;;5071995;28;20228;-76
2023/12/16 00:38:29;;;;;;;50.57;27.73;;;5.30;1.00;;;;;;5064545;28;20217;-75
2023/12/16 00:40:59;;;;;;;50.13;27.23;;;5.30;1.00;;;;;;5056616;28;20247;-77
2023/12/16 00:43:28;;;;;;;58.63;28.57;;;5.30;1.00;;;;;;5059713;28;20307;-74
2023/12/16 00:45:57;;;;;;;55.80;29.67;;;5.30;1.00;;;;;;5063076;28;20228;-72
2023/12/16 00:48:26;;;;;;;57.30;28.80;;;5.30;1.00;;;;;;5064311;28;20284;-74
2023/12/16 00:50:55;;;;;;;57.97;30.37;;;5.30;1.00;;;;;;5065392;28;20256;-74
2023/12/16 00:53:24;;;;;;;61.97;30.47;;;5.40;1.00;;;;;;5066063;28;20289;-73
2023/12/16 00:55:53;;;;;;;69.23;32.13;;;5.40;1.00;;;;;;5070012;28;20303;-73
2023/12/16 00:58:23;;;;;;;60.80;31.37;;;5.30;1.00;;;;;;5066546;28;20217;-70
2023/12/16 01:00:52;;;;;;;67.87;31.57;;;5.30;1.00;;;;;;5070133;28;20248;-72
2023/12/16 01:03:21;;;;;;;67.97;33.23;;;5.30;1.00;;;;;;5067992;28;20217;-72
2023/12/16 01:05:50;;;;;;;71.00;34.07;;;5.20;1.00;;;;;;5061553;28;20225;-70
2023/12/16 01:08:18;;;;;;;72.33;34.77;;;5.10;1.00;;;;;;5079830;28;20286;-70
2023/12/16 01:10:47;;;;;;;64.73;32.70;;;5.20;1.00;;;;;;5062455;28;20245;-73
2023/12/16 01:13:17;;;;;;;71.20;33.03;;;5.20;1.00;;;;;;5065468;28;20213;-73
2023/12/16 01:15:47;;;;;;;68.27;32.67;;;5.10;1.00;;;;;;5062310;28;20230;-72
2023/12/16 01:18:16;;;;;;;72.57;33.30;;;5.10;1.00;;;;;;5068037;28;20250;-73
2023/12/16 01:20:45;;;;;;;70.97;33.80;;;5.30;1.00;;;;;;5067394;28;20281;-73
2023/12/16 01:23:14;;;;;;;69.53;32.97;;;5.30;1.00;;;;;;5065014;28;20255;-73
2023/12/16 01:25:42;;;;;;;64.70;31.67;;;5.20;1.00;;;;;;5064039;28;20240;-73
2023/12/16 01:28:12;;;;;;;71.63;33.67;;;5.30;1.00;;;;;;5061564;28;20252;-73
2023/12/16 01:30:40;;;;;;;73.57;33.70;;;5.30;1.00;;;;;;5062632;28;20599;-73
2023/12/16 01:33:12;;;;;;;69.10;32.63;;;5.30;1.00;;;;;;5068364;28;20303;-73
2023/12/16 01:35:41;;;;;;;78.10;34.07;;;5.20;1.00;;;;;;5069135;28;20224;-71
2023/12/16 01:38:10;;;;;;;70.13;32.87;;;5.10;1.00;;;;;;5063083;28;20643;-72
2023/12/16 01:40:38;;;;;;;70.07;32.93;;;5.10;1.00;;;;;;5065399;28;20277;-73
2023/12/16 01:43:08;;;;;;;69.67;33.57;;;5.20;1.00;;;;;;5061452;28;20307;-73
2023/12/16 01:45:36;;;;;;;74.83;33.17;;;5.20;1.00;;;;;;5061330;28;21016;-71
2023/12/16 01:48:07;;;;;;;76.73;34.20;;;5.20;1.00;;;;;;5053455;28;21684;-73
2023/12/16 01:50:37;;;;;;;74.50;33.80;;;5.20;1.00;;;;;;5064922;28;20660;-73
2023/12/16 01:53:07;;;;;;;70.67;33.37;;;5.20;1.00;;;;;;5058382;28;20721;-73
2023/12/16 01:55:36;;;;;;;73.37;34.43;;;5.20;1.00;;;;;;5066778;28;20763;-74
2023/12/16 01:58:05;;;;;;;70.90;32.07;;;5.20;1.00;;;;;;5062134;28;20312;-73
2023/12/16 02:00:34;;;;;;;73.20;33.80;;;5.30;1.00;;;;;;5063432;28;21072;-73
2023/12/16 02:03:02;;;;;;;79.57;33.60;;;5.30;1.00;;;;;;5056957;28;20658;-73
2023/12/16 02:05:31;;;;;;;69.43;32.57;;;5.30;1.00;;;;;;5063135;28;20719;-74
2023/12/16 02:08:01;;;;;;;70.70;32.43;;;5.40;1.00;;;;;;5066297;28;20220;-74
2023/12/16 02:10:30;;;;;;;73.03;32.93;;;5.30;1.00;;;;;;5058844;28;20235;-72
2023/12/16 02:13:01;;;;;;;75.13;31.90;;;5.30;1.00;;;;;;5079988;28;20511;-75
2023/12/16 02:15:31;;;;;;;75.27;33.50;;;5.30;1.00;;;;;;5065300;28;20270;-75
2023/12/16 02:17:59;;;;;;;78.83;33.63;;;5.40;1.00;;;;;;5063715;28;20604;-74
2023/12/16 02:20:29;;;;;;;77.70;33.57;;;5.40;1.00;;;;;;5066386;28;20294;-73
2023/12/16 02:22:59;;;;;;;69.40;31.17;;;5.40;1.00;;;;;;5074654;28;20793;-74
2023/12/16 02:25:29;;;;;;;68.63;32.03;;;5.40;1.00;;;;;;5072094;28;20233;-73
2023/12/16 02:27:58;;;;;;;73.00;31.87;;;5.40;1.00;;;;;;5064230;28;20251;-72
2023/12/16 02:30:27;;;;;;;70.73;30.63;;;5.40;1.00;;;;;;5064988;28;20220;-73
2023/12/16 02:32:56;;;;;;;69.90;31.33;;;5.30;1.00;;;;;;5069662;28;20221;-74
2023/12/16 02:35:25;;;;;;;71.67;30.77;;;5.30;1.00;;;;;;5094424;28;20226;-74
2023/12/16 02:37:54;;;;;;;70.27;29.93;;;5.30;1.00;;;;;;5062683;28;20291;-75
2023/12/16 02:40:22;;;;;;;68.90;29.30;;;5.30;1.00;;;;;;5085606;28;20220;-74
2023/12/16 02:42:53;;;;;;;71.50;30.73;;;5.30;1.00;;;;;;5057373;28;20985;-74
2023/12/16 02:45:21;;;;;;;65.87;29.97;;;5.50;1.00;;;;;;5062582;28;20230;-74
2023/12/16 02:47:50;;;;;;;65.17;28.07;;;5.40;1.00;;;;;;5063813;28;20221;-74
2023/12/16 02:50:19;;;;;;;68.90;28.90;;;5.40;1.00;;;;;;5064785;28;20236;-73
2023/12/16 02:52:48;;;;;;;65.47;28.20;;;5.40;1.00;;;;;;5066488;28;20835;-74
2023/12/16 02:55:18;;;;;;;68.77;29.63;;;5.50;1.00;;;;;;5095111;28;20278;-75
2023/12/16 02:57:47;;;;;;;65.50;29.30;;;5.40;1.00;;;;;;5062242;28;20220;-74
2023/12/16 03:00:17;;;;;;;68.70;28.70;;;5.40;1.00;;;;;;5055362;28;20226;-74
2023/12/16 03:02:45;;;;;;;72.03;29.80;;;5.30;1.00;;;;;;5066249;28;20229;-74
2023/12/16 03:05:14;;;;;;;67.57;29.13;;;5.30;1.00;;;;;;5065276;28;20236;-73
2023/12/16 03:07:43;;;;;;;65.40;28.50;;;5.40;1.00;;;;;;5059906;28;20221;-73
2023/12/16 03:10:12;;;;;;;65.30;29.13;;;5.40;1.00;;;;;;5066428;28;20234;-73
2023/12/16 03:12:41;;;;;;;68.13;29.20;;;5.40;1.00;;;;;;5059398;28;20240;-75
2023/12/16 03:15:10;;;;;;;70.67;29.77;;;5.30;1.00;;;;;;5060296;28;20227;-75
2023/12/16 03:17:40;;;;;;;70.17;29.77;;;5.40;1.00;;;;;;5066015;28;20281;-75
2023/12/16 03:20:10;;;;;;;68.57;30.10;;;5.50;1.00;;;;;;5065173;28;20235;-74
2023/12/16 03:22:39;;;;;;;71.60;30.63;;;5.50;1.00;;;;;;5064238;28;20245;-75
2023/12/16 03:25:08;;;;;;;65.57;29.83;;;5.50;1.00;;;;;;5060654;28;20226;-75
2023/12/16 03:27:37;;;;;;;65.23;28.13;;;5.50;1.00;;;;;;5062346;28;20231;-75
2023/12/16 03:30:08;;;;;;;63.37;28.77;;;5.50;1.00;;;;;;5056490;28;20220;-76
2023/12/16 03:32:39;;;;;;;68.07;29.57;;;5.50;1.00;;;;;;5063032;28;20689;-76
2023/12/16 03:35:10;;;;;;;65.00;28.33;;;5.40;1.00;;;;;;5063086;28;20710;-75
2023/12/16 03:37:39;;;;;;;66.67;29.10;;;5.50;1.00;;;;;;5066317;28;20243;-74
2023/12/16 03:40:09;;;;;;;65.93;27.93;;;5.60;1.00;;;;;;5063592;28;20297;-76
2023/12/16 03:42:38;;;;;;;57.70;26.40;;;5.60;1.00;;;;;;5062391;28;20793;-75
2023/12/16 03:45:08;;;;;;;60.37;27.13;;;5.60;1.00;;;;;;5060215;28;20259;-74
2023/12/16 03:47:37;;;;;;;62.83;26.87;;;5.60;1.00;;;;;;5086556;28;20756;-75
2023/12/16 03:50:07;;;;;;;60.83;26.43;;;5.50;1.00;;;;;;5062484;28;20283;-74
2023/12/16 03:52:37;;;;;;;60.37;25.83;;;5.50;1.00;;;;;;5062097;28;20226;-74
2023/12/16 03:55:06;;;;;;;58.20;26.20;;;5.60;1.00;;;;;;5062991;28;20867;-76
2023/12/16 03:57:35;;;;;;;61.10;26.63;;;5.60;1.00;;;;;;5062262;28;20322;-74
2023/12/16 04:00:05;;;;;;;53.33;24.73;;;5.60;1.00;;;;;;5061314;28;20232;-75
2023/12/16 04:02:38;;;;;;;57.67;24.50;;;5.60;1.00;;;;;;5060433;28;20221;-74
2023/12/16 04:05:08;;;;;;;53.20;24.73;;;5.60;1.00;;;;;;5058384;28;20239;-75
2023/12/16 04:07:38;;;;;;;61.50;25.37;;;5.60;1.00;;;;;;5063431;28;20737;-76
2023/12/16 04:10:09;;;;;;;59.57;24.93;;;5.60;1.00;;;;;;5064336;28;20236;-75
2023/12/16 04:12:38;;;;;;;58.27;25.07;;;5.50;1.00;;;;;;5063384;28;20220;-76
2023/12/16 04:15:08;;;;;;;65.13;26.73;;;5.50;1.00;;;;;;5060221;28;20760;-75
2023/12/16 04:17:37;;;;;;;61.90;25.37;;;5.50;1.00;;;;;;5048922;28;20225;-76
2023/12/16 04:20:07;;;;;;;57.37;24.33;;;5.60;1.00;;;;;;5041153;28;20246;-76
2023/12/16 04:22:37;;;;;;;63.90;26.07;;;5.50;1.00;;;;;;5045252;28;20232;-74
2023/12/16 04:25:10;;;;;;;58.53;26.50;;;5.60;1.00;;;;;;5042884;28;20311;-75
2023/12/16 04:27:39;;;;;;;60.80;24.97;;;5.60;1.00;;;;;;5057535;28;20723;-75
2023/12/16 04:30:09;;;;;;;62.60;26.30;;;5.60;1.00;;;;;;5066464;28;20225;-76
2023/12/16 04:32:38;;;;;;;57.90;25.23;;;5.60;1.00;;;;;;5065578;28;20227;-74
2023/12/16 04:35:07;;;;;;;58.83;25.30;;;5.60;1.00;;;;;;5067088;28;20239;-75
2023/12/16 04:37:36;;;;;;;55.70;25.73;;;5.70;1.00;;;;;;5065885;28;20238;-74
2023/12/16 04:40:08;;;;;;;57.77;25.13;;;5.70;1.00;;;;;;5066627;28;20282;-75
2023/12/16 04:42:36;;;;;;;59.80;25.17;;;5.60;1.00;;;;;;5067569;28;20242;-74
2023/12/16 04:45:06;;;;;;;56.97;25.03;;;5.70;1.00;;;;;;5066391;28;20295;-74
2023/12/16 04:47:36;;;;;;;57.70;24.20;;;5.70;1.00;;;;;;5066969;28;20232;-75
2023/12/16 04:50:07;;;;;;;58.43;25.33;;;5.70;1.00;;;;;;5068975;28;20280;-74
2023/12/16 04:52:35;;;;;;;57.00;24.33;;;5.70;1.00;;;;;;5068727;28;20226;-74
2023/12/16 04:55:07;;;;;;;51.07;22.47;;;5.60;1.00;;;;;;5064080;28;20235;-76
2023/12/16 04:57:36;;;;;;;53.47;23.43;;;5.60;1.00;;;;;;5060943;28;20278;-75
2023/12/16 05:00:07;;;;;;;54.37;23.93;;;5.60;1.00;;;;;;5067908;28;20244;-74
2023/12/16 05:02:36;;;;;;;50.20;23.70;;;5.70;1.00;;;;;;5066850;28;20587;-73
2023/12/16 05:05:05;;;;;;;50.53;23.23;;;5.70;1.00;;;;;;5070146;28;20256;-72
2023/12/16 05:07:34;;;;;;;55.50;24.03;;;5.80;1.00;;;;;;5062584;28;20227;-74
2023/12/16 05:10:03;;;;;;;53.17;23.37;;;5.80;1.00;;;;;;5071072;28;20220;-74
2023/12/16 05:12:33;;;;;;;52.00;22.50;;;5.70;1.00;;;;;;5066330;28;20228;-73
2023/12/16 05:15:04;;;;;;;56.80;24.47;;;5.70;1.00;;;;;;5066110;28;20237;-76
2023/12/16 05:17:33;;;;;;;55.93;23.27;;;5.70;1.00;;;;;;5065846;28;20236;-73
2023/12/16 05:20:01;;;;;;;48.20;22.07;;;5.70;1.00;;;;;;5069298;28;20279;-73
2023/12/16 05:22:33;;;;;;;50.57;22.67;;;5.80;1.00;;;;;;5072406;28;20228;-74
2023/12/16 05:25:03;;;;;;;51.47;22.87;;;5.90;1.00;;;;;;5071141;28;20226;-73
2023/12/16 05:27:35;;;;;;;57.37;23.20;;;5.90;1.00;;;;;;5061690;28;20267;-76
2023/12/16 05:30:04;;;;;;;45.23;23.27;;;5.80;1.00;;;;;;5066616;28;20307;-71
2023/12/16 05:32:37;;;;;;;46.93;23.37;;;5.80;1.00;;;;;;5067990;28;20275;-74
2023/12/16 05:35:06;;;;;;;55.53;22.20;;;5.80;1.00;;;;;;5068048;28;20315;-74
2023/12/16 05:37:35;;;;;;;48.17;21.97;;;5.90;1.00;;;;;;5068635;28;20231;-73
2023/12/16 05:40:04;;;;;;;46.43;22.20;;;5.80;1.00;;;;;;5069413;28;20333;-77
2023/12/16 05:42:35;;;;;;;51.23;22.80;;;5.80;1.00;;;;;;5070646;28;20239;-76
2023/12/16 05:45:04;;;;;;;50.77;23.80;;;5.80;1.00;;;;;;5082295;28;20232;-77
2023/12/16 05:47:33;;;;;;;44.40;22.47;;;5.80;1.00;;;;;;5067986;28;20667;-75
2023/12/16 05:50:02;;;;;;;48.27;22.93;;;5.80;1.00;;;;;;5069131;28;20233;-75
2023/12/16 05:52:31;;;;;;;49.93;22.73;;;5.80;1.00;;;;;;5065518;28;20660;-76
2023/12/16 05:55:00;;;;;;;51.23;23.00;;;5.80;1.00;;;;;;5065995;28;20251;-76
2023/12/16 05:57:29;;;;;;;53.33;26.23;;;5.90;1.00;;;;;;5065384;28;20224;-76
2023/12/16 05:59:59;;;;;;;54.27;24.80;;;5.90;1.00;;;;;;5063744;28;20223;-75
2023/12/16 06:02:28;;;;;;;52.03;23.10;;;5.90;1.00;;;;;;5064300;28;20228;-75
2023/12/16 06:04:57;;;;;;;46.97;22.43;;;5.90;1.00;;;;;;5063684;28;20232;-74
2023/12/16 06:07:25;;;;;;;49.73;23.10;;;6.00;1.00;;;;;;5064314;28;20233;-76
2023/12/16 06:09:55;;;;;;;45.40;21.90;;;5.90;1.00;;;;;;5067312;28;20232;-75
2023/12/16 06:12:23;;;;;;;46.63;22.73;;;5.90;1.00;;;;;;5060340;28;20239;-76
2023/12/16 06:14:52;;;;;;;44.70;21.47;;;5.90;1.00;;;;;;5064111;28;20212;-78
2023/12/16 06:17:22;;;;;;;41.93;21.60;;;5.90;1.00;;;;;;5056918;28;20319;-78
2023/12/16 06:19:51;;;;;;;45.00;21.90;;;6.00;1.00;;;;;;5061552;28;20253;-77
2023/12/16 06:22:19;;;;;;;44.63;22.47;;;6.00;1.00;;;;;;5061497;28;20231;-76
2023/12/16 06:24:49;;;;;;;47.77;21.83;;;5.90;1.00;;;;;;5061659;28;20247;-76
2023/12/16 06:27:17;;;;;;;47.67;23.17;;;6.00;1.00;;;;;;5056741;28;20667;-76
2023/12/16 06:29:46;;;;;;;45.87;21.87;;;6.00;1.00;;;;;;5063763;28;20277;-76
2023/12/16 06:32:14;;;;;;;46.13;22.30;;;5.90;1.00;;;;;;5065877;28;20223;-76
2023/12/16 06:34:46;;;;;;;51.37;24.20;;;5.90;1.00;;;;;;5087728;28;20278;-74
2023/12/16 06:37:14;;;;;;;46.63;22.87;;;6.00;1.00;;;;;;5059537;28;20228;-77
2023/12/16 06:39:43;;;;;;;46.77;22.50;;;6.10;1.00;;;;;;5058756;28;20227;-72
2023/12/16 06:42:12;;;;;;;45.83;22.27;;;6.00;1.00;;;;;;5062337;28;20223;-73
2023/12/16 06:44:40;;;;;;;46.80;21.00;;;6.00;1.00;;;;;;5063757;28;20222;-75
2023/12/16 06:47:09;;;;;;;49.00;23.27;;;6.10;1.00;;;;;;5065426;28;20297;-75
2023/12/16 06:49:38;;;;;;;48.27;23.13;;;6.00;1.00;;;;;;5063212;28;20225;-75
2023/12/16 06:52:08;;;;;;;44.73;22.53;;;6.00;1.00;;;;;;5059830;28;20235;-74
2023/12/16 06:54:37;;;;;;;49.03;24.33;;;6.00;1.00;;;;;;5060488;28;20230;-74
2023/12/16 06:57:06;;;;;;;50.83;23.53;;;6.10;1.00;;;;;;5063245;28;20231;-74
2023/12/16 06:59:34;;;;;;;46.00;22.57;;;6.10;1.00;;;;;;5060773;28;20610;-75
2023/12/16 07:02:03;;;;;;;46.70;21.93;;;6.20;1.00;;;;;;5073430;28;20236;-76
2023/12/16 07:04:32;;;;;;;45.40;22.03;;;6.20;1.00;;;;;;5063903;28;20227;-77
2023/12/16 07:07:01;;;;;;;48.37;22.60;;;6.30;1.00;;;;;;5059876;28;20308;-77
2023/12/16 07:09:31;;;;;;;46.20;22.63;;;6.20;1.00;;;;;;5058870;28;20571;-76
2023/12/16 07:12:00;;;;;;;43.77;22.63;;;6.20;1.00;;;;;;5055171;28;20224;-77
2023/12/16 07:14:29;;;;;;;46.83;22.47;;;6.20;1.00;;;;;;5063123;28;20220;-76
2023/12/16 07:16:57;;;;;;;40.87;20.87;;;6.20;1.00;;;;;;5064316;28;20303;-76
2023/12/16 07:19:27;;;;;;;44.60;20.90;;;6.10;1.00;;;;;;5065325;28;20223;-76
2023/12/16 07:21:56;;;;;;;39.67;21.93;;;6.10;1.00;;;;;;5065662;28;20254;-77
2023/12/16 07:24:24;;;;;;;48.73;22.30;;;6.20;1.00;;;;;;5060672;28;20228;-76
2023/12/16 07:26:54;;;;;;;43.47;21.63;;;6.20;1.00;;;;;;5062736;28;20230;-76
2023/12/16 07:29:23;;;;;;;43.63;20.97;;;6.20;1.00;;;;;;5096621;28;20220;-75
2023/12/16 07:31:52;;;;;;;45.60;22.23;;;6.10;1.00;;;;;;5067145;28;20294;-74
2023/12/16 07:34:21;;;;;;;44.07;21.90;;;6.20;1.00;;;;;;5060450;28;20220;-77
2023/12/16 07:36:50;;;;;;;39.07;21.63;;;6.20;1.00;;;;;;5065972;28;20261;-74
2023/12/16 07:39:18;;;;;;;42.63;21.20;;;6.30;1.00;;;;;;5064188;28;20212;-74
2023/12/16 07:41:47;;;;;;;40.50;21.67;;;6.30;1.00;;;;;;5066548;28;20223;-76
2023/12/16 07:44:17;;;;;;;46.73;24.77;;;6.20;1.00;;;;;;5062887;28;20223;-75
2023/12/16 07:46:46;;;;;;;40.83;20.97;;;6.20;1.00;;;;;;5067457;28;20233;-75
2023/12/16 07:49:16;;;;;;;43.23;21.00;;;6.30;1.00;;;;;;5065492;28;20507;-72
2023/12/16 07:51:45;;;;;;;40.50;21.87;;;6.30;1.00;;;;;;5067011;28;20220;-73
2023/12/16 07:54:13;;;;;;;41.60;22.17;;;6.30;1.00;;;;;;5060831;28;20274;-75
2023/12/16 07:56:42;;;;;;;43.17;21.23;;;6.30;1.00;;;;;;5064648;28;20274;-75
2023/12/16 07:59:10;;;;;;;42.33;21.03;;;6.20;1.00;;;;;;5065192;28;20327;-74
2023/12/16 08:01:40;;;;;;;43.63;22.73;;;6.30;1.00;;;;;;5061228;28;20232;-75
2023/12/16 08:04:10;;;;;;;43.80;22.07;;;6.40;1.00;;;;;;5064357;28;20314;-74
2023/12/16 08:06:39;;;;;;;40.07;22.47;;;6.40;1.00;;;;;;5066790;28;20269;-73
2023/12/16 08:09:08;;;;;;;43.77;21.87;;;6.50;1.00;;;;;;5068090;28;20228;-75
2023/12/16 08:11:37;;;;;;;46.50;21.98;;;6.50;1.00;;;;;;5070053;28;20696;-74
2023/12/16 08:14:07;;;;;;;39.40;21.50;;;6.50;1.00;;;;;;5066570;28;20292;-74
2023/12/16 08:16:38;;;;;;;41.30;21.33;;;6.60;1.00;;;;;;5065047;28;20224;-76
2023/12/16 08:19:08;;;;;;;45.43;21.63;;;6.60;1.00;;;;;;5066419;28;20239;-74
2023/12/16 08:21:37;;;;;;;43.23;21.23;;;6.70;1.00;;;;;;5069100;28;20220;-76
2023/12/16 08:24:07;;;;;;;46.03;21.17;;;6.70;1.00;;;;;;5081170;28;20243;-76
2023/12/16 08:26:35;;;;;;;44.33;21.70;;;6.70;1.00;;;;;;5068888;28;20228;-77
2023/12/16 08:29:05;;;;;;;41.60;21.27;;;6.80;1.00;;;;;;5052381;28;20236;-77
2023/12/16 08:31:33;;;;;;;42.67;20.13;;;6.80;1.00;;;;;;5057902;28;20241;-76
2023/12/16 08:34:02;;;;;;;37.53;18.83;;;6.80;1.00;;;;;;5043894;28;20232;-77
2023/12/16 08:36:32;;;;;;;36.30;19.83;;;6.80;1.00;;;;;;5040795;28;20236;-77
2023/12/16 08:39:01;;;;;;;35.83;17.83;;;6.80;1.00;;;;;;5049616;28;20233;-76
2023/12/16 08:41:30;;;;;;;34.35;17.20;;;6.80;1.00;;;;;;5066298;28;20235;-76
2023/12/16 08:43:59;;;;;;;33.13;16.80;;;6.80;1.00;;;;;;5090535;28;20394;-76
2023/12/16 08:46:27;;;;;;;34.17;16.07;;;6.80;1.00;;;;;;5069309;28;20294;-75
2023/12/16 08:48:57;;;;;;;34.23;16.63;;;6.70;1.00;;;;;;5068461;28;20310;-76
2023/12/16 08:51:26;;;;;;;37.05;16.27;;;6.60;1.00;;;;;;5067396;28;20239;-78
2023/12/16 08:53:57;;;;;;;29.02;15.80;;;6.70;1.00;;;;;;5063945;28;20591;-79
2023/12/16 08:56:25;;;;;;;36.38;17.48;;;6.70;1.00;;;;;;5065920;28;20212;-75
2023/12/16 08:58:54;;;;;;;33.05;15.88;;;6.80;1.00;;;;;;5081358;28;20299;-76
2023/12/16 09:01:23;;;;;;;42.92;20.45;;;6.80;1.00;;;;;;5055104;28;20267;-77
2023/12/16 09:03:52;;;;;;;40.07;18.03;;;6.80;1.00;;;;;;5061583;28;20227;-76
2023/12/16 09:06:21;;;;;;;31.93;18.17;;;6.80;1.00;;;;;;5069723;28;20588;-75
2023/12/16 09:08:50;;;;;;;40.80;19.17;;;6.80;1.00;;;;;;5069512;28;20288;-76
2023/12/16 09:11:20;;;;;;;35.30;19.15;;;6.80;1.00;;;;;;5064966;28;20238;-77
2023/12/16 09:13:49;;;;;;;41.88;20.15;;;6.90;1.00;;;;;;5064192;28;20228;-77
2023/12/16 09:16:19;;;;;;;40.30;19.52;;;6.90;1.00;;;;;;5070064;28;20239;-75
2023/12/16 09:18:48;;;;;;;44.27;20.60;;;7.00;1.00;;;;;;5066414;28;20232;-76
2023/12/16 09:21:18;;;;;;;43.60;21.25;;;7.10;1.00;;;;;;5065914;28;20752;-75
2023/12/16 09:23:47;;;;;;;43.30;21.30;;;7.10;1.00;;;;;;5068767;28;20232;-73
2023/12/16 09:26:17;;;;;;;44.23;21.13;;;7.20;1.00;;;;;;5057831;28;21048;-74
2023/12/16 09:28:47;;;;;;;47.97;23.47;;;7.30;1.00;;;;;;5065107;28;20302;-76
2023/12/16 09:31:17;;;;;;;44.63;21.15;;;7.30;1.00;;;;;;5079471;28;20225;-74
2023/12/16 09:33:46;;;;;;;43.40;21.37;;;7.30;1.00;;;;;;5065867;28;20224;-74
2023/12/16 09:36:15;;;;;;;48.85;22.00;;;7.30;1.00;;;;;;5096989;28;20231;-77
2023/12/16 09:38:44;;;;;;;43.42;19.52;;;7.40;1.00;;;;;;5068861;28;20231;-74
2023/12/16 09:41:21;;;;;;;44.63;20.67;;;7.30;1.00;;;;;;5070088;28;20316;-78
2023/12/16 09:43:53;;;;;;;41.65;19.75;;;7.40;1.00;;;;;;5068655;28;20247;-79
2023/12/16 09:46:24;;;;;;;38.67;19.08;;;7.30;1.00;;;;;;5066588;28;20227;-77
2023/12/16 09:48:54;;;;;;;40.08;19.58;;;7.40;1.00;;;;;;5063513;28;20228;-77
2023/12/16 09:51:24;;;;;;;37.70;17.90;;;7.40;1.00;;;;;;5067474;28;20242;-78
2023/12/16 09:53:53;;;;;;;37.23;18.33;;;7.50;1.00;;;;;;5065799;28;20257;-74
2023/12/16 09:56:22;;;;;;;35.40;16.45;;;7.50;1.00;;;;;;5067595;28;20234;-75
2023/12/16 09:58:53;;;;;;;44.78;20.30;;;7.50;1.00;;;;;;5067095;28;20224;-74
2023/12/16 10:01:22;;;;;;;42.20;20.58;;;7.40;1.00;;;;;;5066313;28;20228;-72
2023/12/16 10:03:53;;;;;;;51.17;23.90;;;7.40;1.00;;;;;;5064912;28;20216;-76
2023/12/16 10:06:21;;;;;;;42.05;21.02;;;7.40;1.00;;;;;;5060223;28;20237;-76
2023/12/16 10:08:50;;;;;;;38.42;17.05;;;7.50;1.00;;;;;;5068877;28;20293;-74
2023/12/16 10:11:20;;;;;;;47.20;22.25;;;7.50;1.00;;;;;;5063830;28;20232;-73
2023/12/16 10:13:58;;;;;;;34.90;16.45;;;7.30;1.00;;;;;;5065957;28;20220;-76
2023/12/16 10:16:27;;;;;;;43.92;20.50;;;7.40;1.00;;;;;;5070450;28;20224;-77
2023/12/16 10:18:57;;;;;;;32.00;16.60;;;7.40;1.00;;;;;;5066960;28;20229;-76
2023/12/16 10:21:29;;;;;;;36.35;17.00;;;7.50;1.00;;;;;;5068780;28;20212;-76
2023/12/16 10:23:59;;;;;;;33.10;16.38;;;7.60;1.00;;;;;;5065560;28;20247;-76
2023/12/16 10:26:30;;;;;;;34.08;16.58;;;7.50;1.00;;;;;;5066581;28;20232;-75
2023/12/16 10:29:04;;;;;;;35.97;16.63;;;7.60;1.00;;;;;;5065821;28;20231;-77
2023/12/16 10:31:33;;;;;;;32.65;15.88;;;7.60;1.00;;;;;;5063630;28;20231;-76
2023/12/16 10:34:02;;;;;;;35.65;15.82;;;7.60;1.00;;;;;;5064909;28;20266;-76
2023/12/16 10:36:31;;;;;;;34.33;15.32;;;7.60;1.00;;;;;;5061979;28;20306;-75
2023/12/16 10:39:00;;;;;;;28.80;14.98;;;7.70;1.00;;;;;;5062959;28;20223;-74
2023/12/16 10:41:29;;;;;;;28.23;14.90;;;7.80;1.00;;;;;;5064666;28;20216;-77
2023/12/16 10:44:00;;;;;;;27.33;14.70;;;7.80;1.00;;;;;;5062667;28;20251;-76
2023/12/16 10:46:36;;;;;;;33.13;16.50;;;7.80;1.00;;;;;;5061811;28;20244;-76
2023/12/16 10:49:10;;;;;;;31.63;16.30;;;7.80;1.00;;;;;;5058068;28;20228;-75
2023/12/16 10:51:44;;;;;;;33.00;17.17;;;8.00;1.00;;;;;;5064324;28;20787;-76
2023/12/16 10:54:23;;;;;;;30.48;16.58;;;7.90;1.00;;;;;;5078447;28;20281;-78
2023/12/16 10:57:04;;;;;;;35.85;17.15;;;7.90;1.00;;;;;;5065146;28;20243;-75
2023/12/16 10:59:38;;;;;;;38.13;18.88;;;7.90;1.00;;;;;;5063237;28;20223;-75
2023/12/16 11:02:18;;;;;;;36.30;18.23;;;7.90;1.00;;;;;;5067271;28;20269;-74
2023/12/16 11:04:51;;;;;;;31.90;16.98;;;8.00;1.00;;;;;;5065041;28;20244;-74
2023/12/16 11:07:22;;;;;;;33.08;17.80;;;7.90;1.00;;;;;;5064439;28;20322;-75
2023/12/16 11:09:52;;;;;;;38.03;18.17;;;7.80;1.00;;;;;;5063322;28;20224;-76
2023/12/16 11:12:21;;;;;;;40.47;18.50;;;7.80;1.00;;;;;;5064723;28;20228;-75
2023/12/16 11:14:54;;;;;;;35.95;19.60;;;7.80;1.00;;;;;;5061314;28;20510;-76
2023/12/16 11:17:30;;;;;;;34.40;18.60;;;7.80;1.00;;;;;;5058703;28;20238;-76
2023/12/16 11:20:06;;;;;;;36.05;18.15;;;7.90;1.00;;;;;;5060429;28;20223;-75
2023/12/16 11:22:45;;;;;;;40.65;19.30;;;7.90;1.00;;;;;;5066100;28;20321;-74
2023/12/16 11:25:23;;;;;;;47.28;23.00;;;7.80;1.00;;;;;;5065983;28;20220;-74
2023/12/16 11:27:53;;;;;;;39.17;21.13;;;7.90;1.00;;;;;;5063469;28;20224;-75
2023/12/16 11:30:23;;;;;;;45.08;19.75;;;7.90;1.00;;;;;;5063252;28;20236;-73
2023/12/16 11:32:54;;;;;;;42.00;20.75;;;7.90;1.00;;;;;;5065163;28;20226;-75
2023/12/16 11:35:48;;;;;;;38.40;19.42;;;7.90;1.00;;;;;;5060348;28;20246;-76
2023/12/16 11:38:42;;;;;;;37.15;18.27;;;7.90;1.00;;;;;;5064573;28;20286;-76
2023/12/16 11:41:32;;;;;;;38.65;19.73;;;7.90;1.00;;;;;;5060578;28;20220;-76
2023/12/16 11:44:01;;;;;;;38.20;21.13;;;7.80;1.00;;;;;;5058187;28;20215;-78
2023/12/16 11:46:41;;;;;;;38.88;19.23;;;7.90;1.00;;;;;;5066754;28;20232;-76
2023/12/16 11:49:13;;;;;;;37.10;18.92;;;7.90;1.00;;;;;;5059225;28;20246;-76
2023/12/16 11:51:42;;;;;;;35.90;18.98;;;7.90;1.00;;;;;;5064485;28;20384;-77
2023/12/16 11:54:12;;;;;;;31.83;18.45;;;7.90;1.00;;;;;;5055564;28;20624;-76
2023/12/16 11:56:41;;;;;;;35.28;17.77;;;7.90;1.00;;;;;;5057873;28;20224;-76
2023/12/16 11:59:10;;;;;;;32.72;17.27;;;7.90;1.00;;;;;;5061047;28;20228;-75
2023/12/16 12:01:40;;;;;;;36.03;18.08;;;7.90;1.00;;;;;;5059046;28;20694;-73
2023/12/16 12:04:09;;;;;;;29.73;17.75;;;7.80;1.00;;;;;;5061936;28;20599;-77
2023/12/16 12:06:38;;;;;;;34.17;17.90;;;7.80;1.00;;;;;;5063627;28;20224;-75
2023/12/16 12:09:07;;;;;;;35.00;18.42;;;7.80;1.00;;;;;;5063611;28;20228;-74
2023/12/16 12:11:36;;;;;;;36.20;17.27;;;7.90;1.00;;;;;;5060238;28;20228;-80
2023/12/16 12:14:05;;;;;;;33.50;17.98;;;7.90;1.00;;;;;;5057988;28;20224;-80
2023/12/16 12:16:34;;;;;;;33.00;16.73;;;7.90;1.00;;;;;;5062798;28;20273;-77
2023/12/16 12:19:04;;;;;;;31.08;17.27;;;7.90;1.00;;;;;;5063642;28;20226;-75
2023/12/16 12:21:36;;;;;;;35.63;17.40;;;8.00;1.00;;;;;;5061654;28;20293;-74
2023/12/16 12:24:06;;;;;;;33.38;18.27;;;8.00;1.00;;;;;;5061904;28;20266;-74
2023/12/16 12:26:35;;;;;;;27.73;17.10;;;7.90;1.00;;;;;;5052320;28;20240;-76
2023/12/16 12:29:04;;;;;;;30.73;16.75;;;7.90;1.00;;;;;;5059237;28;20232;-74
2023/12/16 12:31:43;;;;;;;32.08;16.92;;;8.00;1.00;;;;;;5062102;28;20224;-71
2023/12/16 12:34:19;;;;;;;34.30;16.92;;;8.00;1.00;;;;;;5064215;28;20236;-71
2023/12/16 12:36:54;;;;;;;27.92;16.75;;;8.00;1.00;;;;;;5060076;28;20228;-72
2023/12/16 12:39:23;;;;;;;34.50;16.67;;;8.00;1.00;;;;;;5085072;28;20731;-73
2023/12/16 12:42:02;;;;;;;31.77;17.60;;;8.00;1.00;;;;;;5055407;28;20209;-74
2023/12/16 12:44:34;;;;;;;29.85;16.80;;;7.90;1.00;;;;;;5063937;28;20250;-76
2023/12/16 12:47:03;;;;;;;34.58;19.75;;;7.90;1.00;;;;;;5065172;28;21007;-76
2023/12/16 12:49:36;;;;;;;30.75;18.33;;;7.90;1.00;;;;;;5063674;28;20248;-76
2023/12/16 12:52:05;;;;;;;33.78;17.77;;;7.90;1.00;;;;;;5066497;28;20228;-79
2023/12/16 12:54:44;;;;;;;33.80;17.45;;;7.90;1.00;;;;;;5068389;28;20228;-78
2023/12/16 12:57:20;;;;;;;33.47;18.10;;;7.90;1.00;;;;;;5068255;28;20278;-77
2023/12/16 12:59:48;;;;;;;31.80;18.13;;;7.90;1.00;;;;;;5056568;28;20220;-74
2023/12/16 13:02:31;;;;;;;33.03;17.85;;;7.90;1.00;;;;;;5053489;28;20670;-77